sensor_id;sensor_type;location;lat;lon;timestamp;P1;durP1;ratioP1;P2;durP2;ratioP2
7729;SDS011;3908;52.310;7.230;2024-01-30T00:02:45;33.00;;;30.50;;
7729;SDS011;3908;52.310;7.230;2024-01-30T00:05:32;32.43;;;29.60;;
7729;SDS011;3908;52.310;7.230;2024-01-30T00:08:19;33.13;;;30.20;;
7729;SDS011;3908;52.310;7.230;2024-01-30T00:11:07;31.23;;;28.87;;
7729;SDS011;3908;52.310;7.230;2024-01-30T00:13:54;31.37;;;28.77;;
7729;SDS011;3908;52.310;7.230;2024-01-30T00:16:43;30.90;;;28.47;;
7729;SDS011;3908;52.310;7.230;2024-01-30T00:19:30;28.30;;;26.00;;
7729;SDS011;3908;52.310;7.230;2024-01-30T00:22:17;27.57;;;25.17;;
7729;SDS011;3908;52.310;7.230;2024-01-30T00:25:05;27.70;;;25.30;;
7729;SDS011;3908;52.310;7.230;2024-01-30T00:27:52;26.53;;;23.93;;
7729;SDS011;3908;52.310;7.230;2024-01-30T00:30:40;24.97;;;22.77;;
7729;SDS011;3908;52.310;7.230;2024-01-30T00:33:33;24.83;;;22.73;;
7729;SDS011;3908;52.310;7.230;2024-01-30T00:36:20;25.33;;;22.73;;
7729;SDS011;3908;52.310;7.230;2024-01-30T00:39:07;24.13;;;21.70;;
7729;SDS011;3908;52.310;7.230;2024-01-30T00:41:55;23.60;;;21.37;;
7729;SDS011;3908;52.310;7.230;2024-01-30T00:44:42;21.73;;;19.53;;
7729;SDS011;3908;52.310;7.230;2024-01-30T00:47:29;25.33;;;21.10;;
7729;SDS011;3908;52.310;7.230;2024-01-30T00:50:22;24.70;;;22.53;;
7729;SDS011;3908;52.310;7.230;2024-01-30T00:53:09;28.53;;;25.90;;
7729;SDS011;3908;52.310;7.230;2024-01-30T00:55:59;32.30;;;29.17;;
7729;SDS011;3908;52.310;7.230;2024-01-30T00:58:46;32.67;;;30.17;;
7729;SDS011;3908;52.310;7.230;2024-01-30T01:01:34;37.03;;;34.03;;
7729;SDS011;3908;52.310;7.230;2024-01-30T01:04:21;39.27;;;36.20;;
7729;SDS011;3908;52.310;7.230;2024-01-30T01:07:09;40.40;;;37.70;;
7729;SDS011;3908;52.310;7.230;2024-01-30T01:09:56;41.43;;;38.40;;
7729;SDS011;3908;52.310;7.230;2024-01-30T01:12:43;40.37;;;37.43;;
7729;SDS011;3908;52.310;7.230;2024-01-30T01:15:30;39.00;;;36.03;;
7729;SDS011;3908;52.310;7.230;2024-01-30T01:18:18;35.87;;;32.97;;
7729;SDS011;3908;52.310;7.230;2024-01-30T01:21:05;32.87;;;30.23;;
7729;SDS011;3908;52.310;7.230;2024-01-30T01:23:56;30.13;;;27.67;;
7729;SDS011;3908;52.310;7.230;2024-01-30T01:26:43;28.23;;;25.77;;
7729;SDS011;3908;52.310;7.230;2024-01-30T01:29:31;28.63;;;25.93;;
7729;SDS011;3908;52.310;7.230;2024-01-30T01:32:18;26.40;;;23.97;;
7729;SDS011;3908;52.310;7.230;2024-01-30T01:35:05;26.40;;;24.00;;
7729;SDS011;3908;52.310;7.230;2024-01-30T01:37:56;26.00;;;23.90;;
7729;SDS011;3908;52.310;7.230;2024-01-30T01:40:49;28.40;;;26.00;;
7729;SDS011;3908;52.310;7.230;2024-01-30T01:43:36;29.17;;;26.33;;
7729;SDS011;3908;52.310;7.230;2024-01-30T01:46:26;28.57;;;25.97;;
7729;SDS011;3908;52.310;7.230;2024-01-30T01:49:14;30.87;;;28.33;;
7729;SDS011;3908;52.310;7.230;2024-01-30T01:52:01;33.67;;;31.10;;
7729;SDS011;3908;52.310;7.230;2024-01-30T01:54:48;31.50;;;29.10;;
7729;SDS011;3908;52.310;7.230;2024-01-30T01:57:37;33.73;;;31.07;;
7729;SDS011;3908;52.310;7.230;2024-01-30T02:00:24;35.83;;;32.77;;
7729;SDS011;3908;52.310;7.230;2024-01-30T02:03:12;35.37;;;32.67;;
7729;SDS011;3908;52.310;7.230;2024-01-30T02:06:00;35.63;;;33.03;;
7729;SDS011;3908;52.310;7.230;2024-01-30T02:08:48;37.13;;;34.13;;
7729;SDS011;3908;52.310;7.230;2024-01-30T02:11:35;34.07;;;30.90;;
7729;SDS011;3908;52.310;7.230;2024-01-30T02:14:23;33.07;;;30.43;;
7729;SDS011;3908;52.310;7.230;2024-01-30T02:17:11;31.00;;;28.57;;
7729;SDS011;3908;52.310;7.230;2024-01-30T02:19:58;32.93;;;29.63;;
7729;SDS011;3908;52.310;7.230;2024-01-30T02:22:46;32.70;;;30.23;;
7729;SDS011;3908;52.310;7.230;2024-01-30T02:25:38;38.50;;;35.13;;
7729;SDS011;3908;52.310;7.230;2024-01-30T02:28:29;42.40;;;39.40;;
7729;SDS011;3908;52.310;7.230;2024-01-30T02:31:17;45.03;;;41.97;;
7729;SDS011;3908;52.310;7.230;2024-01-30T02:34:04;46.30;;;43.10;;
7729;SDS011;3908;52.310;7.230;2024-01-30T02:36:51;46.17;;;43.20;;
7729;SDS011;3908;52.310;7.230;2024-01-30T02:39:39;59.50;;;55.67;;
7729;SDS011;3908;52.310;7.230;2024-01-30T02:42:26;45.63;;;42.03;;
7729;SDS011;3908;52.310;7.230;2024-01-30T02:45:14;45.40;;;42.30;;
7729;SDS011;3908;52.310;7.230;2024-01-30T02:48:01;39.67;;;36.70;;
7729;SDS011;3908;52.310;7.230;2024-01-30T02:50:51;35.60;;;33.00;;
7729;SDS011;3908;52.310;7.230;2024-01-30T02:53:38;32.67;;;30.10;;
7729;SDS011;3908;52.310;7.230;2024-01-30T02:56:26;28.13;;;25.83;;
7729;SDS011;3908;52.310;7.230;2024-01-30T02:59:13;25.30;;;22.90;;
7729;SDS011;3908;52.310;7.230;2024-01-30T03:02:00;24.03;;;21.80;;
7729;SDS011;3908;52.310;7.230;2024-01-30T03:04:48;21.90;;;20.10;;
7729;SDS011;3908;52.310;7.230;2024-01-30T03:07:35;22.30;;;19.97;;
7729;SDS011;3908;52.310;7.230;2024-01-30T03:10:22;20.50;;;18.30;;
7729;SDS011;3908;52.310;7.230;2024-01-30T03:13:10;19.83;;;17.90;;
7729;SDS011;3908;52.310;7.230;2024-01-30T03:15:57;24.40;;;17.90;;
7729;SDS011;3908;52.310;7.230;2024-01-30T03:18:45;19.40;;;17.40;;
7729;SDS011;3908;52.310;7.230;2024-01-30T03:21:32;18.37;;;16.47;;
7729;SDS011;3908;52.310;7.230;2024-01-30T03:24:19;20.90;;;18.47;;
7729;SDS011;3908;52.310;7.230;2024-01-30T03:27:06;20.77;;;18.83;;
7729;SDS011;3908;52.310;7.230;2024-01-30T03:29:54;22.67;;;20.40;;
7729;SDS011;3908;52.310;7.230;2024-01-30T03:32:42;23.73;;;21.37;;
7729;SDS011;3908;52.310;7.230;2024-01-30T03:35:29;27.80;;;25.50;;
7729;SDS011;3908;52.310;7.230;2024-01-30T03:38:16;24.60;;;22.40;;
7729;SDS011;3908;52.310;7.230;2024-01-30T03:41:07;23.93;;;21.63;;
7729;SDS011;3908;52.310;7.230;2024-01-30T03:43:54;21.17;;;19.33;;
7729;SDS011;3908;52.310;7.230;2024-01-30T03:46:42;18.37;;;16.53;;
7729;SDS011;3908;52.310;7.230;2024-01-30T03:49:30;19.17;;;17.23;;
7729;SDS011;3908;52.310;7.230;2024-01-30T03:52:17;18.37;;;15.50;;
7729;SDS011;3908;52.310;7.230;2024-01-30T03:55:04;19.20;;;16.93;;
7729;SDS011;3908;52.310;7.230;2024-01-30T03:57:51;20.67;;;18.83;;
7729;SDS011;3908;52.310;7.230;2024-01-30T04:00:38;21.00;;;18.87;;
7729;SDS011;3908;52.310;7.230;2024-01-30T04:03:27;20.73;;;18.63;;
7729;SDS011;3908;52.310;7.230;2024-01-30T04:06:17;20.63;;;18.57;;
7729;SDS011;3908;52.310;7.230;2024-01-30T04:09:04;21.23;;;19.10;;
7729;SDS011;3908;52.310;7.230;2024-01-30T04:11:51;21.20;;;19.17;;
7729;SDS011;3908;52.310;7.230;2024-01-30T04:14:39;20.70;;;18.63;;
7729;SDS011;3908;52.310;7.230;2024-01-30T04:17:26;22.60;;;20.33;;
7729;SDS011;3908;52.310;7.230;2024-01-30T04:20:15;21.17;;;19.17;;
7729;SDS011;3908;52.310;7.230;2024-01-30T04:23:03;23.73;;;21.70;;
7729;SDS011;3908;52.310;7.230;2024-01-30T04:25:51;22.17;;;20.07;;
7729;SDS011;3908;52.310;7.230;2024-01-30T04:28:42;21.93;;;20.13;;
7729;SDS011;3908;52.310;7.230;2024-01-30T04:31:29;20.40;;;18.53;;
7729;SDS011;3908;52.310;7.230;2024-01-30T04:34:16;21.07;;;19.00;;
7729;SDS011;3908;52.310;7.230;2024-01-30T04:37:05;21.63;;;19.83;;
7729;SDS011;3908;52.310;7.230;2024-01-30T04:39:52;22.23;;;20.27;;
7729;SDS011;3908;52.310;7.230;2024-01-30T04:42:39;24.57;;;22.67;;
7729;SDS011;3908;52.310;7.230;2024-01-30T04:45:26;22.50;;;20.57;;
7729;SDS011;3908;52.310;7.230;2024-01-30T04:48:13;20.10;;;18.27;;
7729;SDS011;3908;52.310;7.230;2024-01-30T04:51:00;20.53;;;18.67;;
7729;SDS011;3908;52.310;7.230;2024-01-30T04:53:49;20.13;;;17.87;;
7729;SDS011;3908;52.310;7.230;2024-01-30T04:56:36;20.70;;;18.63;;
7729;SDS011;3908;52.310;7.230;2024-01-30T04:59:25;18.27;;;16.37;;
7729;SDS011;3908;52.310;7.230;2024-01-30T05:02:12;21.00;;;18.90;;
7729;SDS011;3908;52.310;7.230;2024-01-30T05:04:59;22.63;;;20.70;;
7729;SDS011;3908;52.310;7.230;2024-01-30T05:07:46;22.73;;;20.47;;
7729;SDS011;3908;52.310;7.230;2024-01-30T05:10:34;23.77;;;21.57;;
7729;SDS011;3908;52.310;7.230;2024-01-30T05:13:21;22.33;;;20.47;;
7729;SDS011;3908;52.310;7.230;2024-01-30T05:16:11;22.57;;;20.53;;
7729;SDS011;3908;52.310;7.230;2024-01-30T05:18:58;23.50;;;21.33;;
7729;SDS011;3908;52.310;7.230;2024-01-30T05:21:45;21.73;;;19.57;;
7729;SDS011;3908;52.310;7.230;2024-01-30T05:24:33;19.70;;;18.00;;
7729;SDS011;3908;52.310;7.230;2024-01-30T05:27:21;21.07;;;18.73;;
7729;SDS011;3908;52.310;7.230;2024-01-30T05:30:09;22.60;;;18.40;;
7729;SDS011;3908;52.310;7.230;2024-01-30T05:32:57;20.53;;;18.67;;
7729;SDS011;3908;52.310;7.230;2024-01-30T05:35:44;18.70;;;16.87;;
7729;SDS011;3908;52.310;7.230;2024-01-30T05:38:31;19.50;;;17.40;;
7729;SDS011;3908;52.310;7.230;2024-01-30T05:41:19;21.00;;;18.83;;
7729;SDS011;3908;52.310;7.230;2024-01-30T05:44:07;19.20;;;17.40;;
7729;SDS011;3908;52.310;7.230;2024-01-30T05:46:55;18.17;;;16.37;;
7729;SDS011;3908;52.310;7.230;2024-01-30T05:49:43;19.83;;;17.73;;
7729;SDS011;3908;52.310;7.230;2024-01-30T05:52:32;17.43;;;15.00;;
7729;SDS011;3908;52.310;7.230;2024-01-30T05:55:22;18.03;;;15.80;;
7729;SDS011;3908;52.310;7.230;2024-01-30T05:58:09;18.83;;;14.57;;
7729;SDS011;3908;52.310;7.230;2024-01-30T06:00:58;19.60;;;13.90;;
7729;SDS011;3908;52.310;7.230;2024-01-30T06:03:45;18.30;;;12.87;;
7729;SDS011;3908;52.310;7.230;2024-01-30T06:06:32;18.10;;;12.00;;
7729;SDS011;3908;52.310;7.230;2024-01-30T06:09:19;20.93;;;13.13;;
7729;SDS011;3908;52.310;7.230;2024-01-30T06:12:06;18.20;;;12.90;;
7729;SDS011;3908;52.310;7.230;2024-01-30T06:14:54;18.40;;;16.00;;
7729;SDS011;3908;52.310;7.230;2024-01-30T06:17:43;19.33;;;17.40;;
7729;SDS011;3908;52.310;7.230;2024-01-30T06:20:33;20.07;;;17.97;;
7729;SDS011;3908;52.310;7.230;2024-01-30T06:23:21;23.80;;;21.40;;
7729;SDS011;3908;52.310;7.230;2024-01-30T06:26:08;24.97;;;22.93;;
7729;SDS011;3908;52.310;7.230;2024-01-30T06:28:55;32.70;;;30.33;;
7729;SDS011;3908;52.310;7.230;2024-01-30T06:31:42;32.13;;;29.63;;
7729;SDS011;3908;52.310;7.230;2024-01-30T06:34:31;29.23;;;26.93;;
7729;SDS011;3908;52.310;7.230;2024-01-30T06:37:18;27.93;;;25.50;;
7729;SDS011;3908;52.310;7.230;2024-01-30T06:40:06;25.93;;;23.77;;
7729;SDS011;3908;52.310;7.230;2024-01-30T06:42:54;27.23;;;24.60;;
7729;SDS011;3908;52.310;7.230;2024-01-30T06:45:41;33.57;;;30.57;;
7729;SDS011;3908;52.310;7.230;2024-01-30T06:48:28;40.40;;;37.23;;
7729;SDS011;3908;52.310;7.230;2024-01-30T06:51:27;44.37;;;40.90;;
7729;SDS011;3908;52.310;7.230;2024-01-30T06:54:14;54.93;;;51.30;;
7729;SDS011;3908;52.310;7.230;2024-01-30T06:57:02;55.67;;;51.57;;
7729;SDS011;3908;52.310;7.230;2024-01-30T06:59:50;65.67;;;61.50;;
7729;SDS011;3908;52.310;7.230;2024-01-30T07:02:37;59.80;;;55.73;;
7729;SDS011;3908;52.310;7.230;2024-01-30T07:05:25;50.80;;;47.37;;
7729;SDS011;3908;52.310;7.230;2024-01-30T07:08:13;60.57;;;56.23;;
7729;SDS011;3908;52.310;7.230;2024-01-30T07:11:05;56.43;;;52.63;;
7729;SDS011;3908;52.310;7.230;2024-01-30T07:13:55;55.80;;;51.90;;
7729;SDS011;3908;52.310;7.230;2024-01-30T07:16:43;51.40;;;48.00;;
7729;SDS011;3908;52.310;7.230;2024-01-30T07:19:30;55.43;;;51.60;;
7729;SDS011;3908;52.310;7.230;2024-01-30T07:22:17;56.43;;;52.83;;
7729;SDS011;3908;52.310;7.230;2024-01-30T07:25:06;55.00;;;51.23;;
7729;SDS011;3908;52.310;7.230;2024-01-30T07:27:54;52.93;;;49.10;;
7729;SDS011;3908;52.310;7.230;2024-01-30T07:30:44;50.00;;;46.47;;
7729;SDS011;3908;52.310;7.230;2024-01-30T07:33:32;67.37;;;62.90;;
7729;SDS011;3908;52.310;7.230;2024-01-30T07:36:19;50.67;;;47.00;;
7729;SDS011;3908;52.310;7.230;2024-01-30T07:39:07;52.30;;;48.30;;
7729;SDS011;3908;52.310;7.230;2024-01-30T07:41:56;51.53;;;48.07;;
7729;SDS011;3908;52.310;7.230;2024-01-30T07:44:43;49.90;;;46.27;;
7729;SDS011;3908;52.310;7.230;2024-01-30T07:47:31;51.00;;;47.40;;
7729;SDS011;3908;52.310;7.230;2024-01-30T07:50:18;44.63;;;41.50;;
7729;SDS011;3908;52.310;7.230;2024-01-30T07:53:05;43.30;;;40.13;;
7729;SDS011;3908;52.310;7.230;2024-01-30T07:55:52;40.57;;;37.43;;
7729;SDS011;3908;52.310;7.230;2024-01-30T07:58:41;39.23;;;36.53;;
7729;SDS011;3908;52.310;7.230;2024-01-30T08:01:28;37.33;;;34.60;;
7729;SDS011;3908;52.310;7.230;2024-01-30T08:04:15;38.03;;;34.93;;
7729;SDS011;3908;52.310;7.230;2024-01-30T08:07:03;38.20;;;35.33;;
7729;SDS011;3908;52.310;7.230;2024-01-30T08:09:53;40.73;;;37.70;;
7729;SDS011;3908;52.310;7.230;2024-01-30T08:12:40;40.33;;;37.50;;
7729;SDS011;3908;52.310;7.230;2024-01-30T08:15:31;35.47;;;32.67;;
7729;SDS011;3908;52.310;7.230;2024-01-30T08:18:19;35.57;;;32.30;;
7729;SDS011;3908;52.310;7.230;2024-01-30T08:21:09;31.20;;;28.30;;
7729;SDS011;3908;52.310;7.230;2024-01-30T08:23:56;27.60;;;25.10;;
7729;SDS011;3908;52.310;7.230;2024-01-30T08:26:43;27.10;;;24.60;;
7729;SDS011;3908;52.310;7.230;2024-01-30T08:29:30;22.10;;;20.20;;
7729;SDS011;3908;52.310;7.230;2024-01-30T08:32:19;22.00;;;20.07;;
7729;SDS011;3908;52.310;7.230;2024-01-30T08:35:06;20.20;;;17.80;;
7729;SDS011;3908;52.310;7.230;2024-01-30T08:37:54;20.97;;;18.50;;
7729;SDS011;3908;52.310;7.230;2024-01-30T08:40:44;22.47;;;19.97;;
7729;SDS011;3908;52.310;7.230;2024-01-30T08:43:31;19.13;;;17.17;;
7729;SDS011;3908;52.310;7.230;2024-01-30T08:46:19;20.33;;;18.33;;
7729;SDS011;3908;52.310;7.230;2024-01-30T08:49:07;19.77;;;17.73;;
7729;SDS011;3908;52.310;7.230;2024-01-30T08:51:54;17.10;;;14.63;;
7729;SDS011;3908;52.310;7.230;2024-01-30T08:54:42;18.43;;;16.17;;
7729;SDS011;3908;52.310;7.230;2024-01-30T08:57:29;16.67;;;14.87;;
7729;SDS011;3908;52.310;7.230;2024-01-30T09:00:16;19.90;;;16.50;;
7729;SDS011;3908;52.310;7.230;2024-01-30T09:03:04;15.73;;;13.93;;
7729;SDS011;3908;52.310;7.230;2024-01-30T09:05:54;17.63;;;14.93;;
7729;SDS011;3908;52.310;7.230;2024-01-30T09:08:45;16.53;;;14.93;;
7729;SDS011;3908;52.310;7.230;2024-01-30T09:11:32;18.90;;;14.23;;
7729;SDS011;3908;52.310;7.230;2024-01-30T09:14:22;17.33;;;15.53;;
7729;SDS011;3908;52.310;7.230;2024-01-30T09:17:09;20.17;;;15.73;;
7729;SDS011;3908;52.310;7.230;2024-01-30T09:19:59;19.90;;;17.90;;
7729;SDS011;3908;52.310;7.230;2024-01-30T09:22:47;23.97;;;21.90;;
7729;SDS011;3908;52.310;7.230;2024-01-30T09:25:38;28.87;;;26.53;;
7729;SDS011;3908;52.310;7.230;2024-01-30T09:28:25;26.97;;;24.63;;
7729;SDS011;3908;52.310;7.230;2024-01-30T09:31:12;28.90;;;26.33;;
7729;SDS011;3908;52.310;7.230;2024-01-30T09:33:59;30.93;;;28.43;;
7729;SDS011;3908;52.310;7.230;2024-01-30T09:36:46;31.10;;;28.67;;
7729;SDS011;3908;52.310;7.230;2024-01-30T09:39:37;33.83;;;30.70;;
7729;SDS011;3908;52.310;7.230;2024-01-30T09:42:26;32.33;;;29.60;;
7729;SDS011;3908;52.310;7.230;2024-01-30T09:45:19;31.07;;;28.57;;
7729;SDS011;3908;52.310;7.230;2024-01-30T09:48:06;29.03;;;26.67;;
7729;SDS011;3908;52.310;7.230;2024-01-30T09:50:55;31.63;;;28.63;;
7729;SDS011;3908;52.310;7.230;2024-01-30T09:53:44;26.00;;;23.53;;
7729;SDS011;3908;52.310;7.230;2024-01-30T09:56:33;28.23;;;25.87;;
7729;SDS011;3908;52.310;7.230;2024-01-30T09:59:21;34.40;;;31.63;;
7729;SDS011;3908;52.310;7.230;2024-01-30T10:02:08;44.83;;;41.97;;
7729;SDS011;3908;52.310;7.230;2024-01-30T10:04:59;49.30;;;46.27;;
7729;SDS011;3908;52.310;7.230;2024-01-30T10:07:52;46.83;;;43.40;;
7729;SDS011;3908;52.310;7.230;2024-01-30T10:10:40;33.50;;;31.00;;
7729;SDS011;3908;52.310;7.230;2024-01-30T10:13:28;39.83;;;37.10;;
7729;SDS011;3908;52.310;7.230;2024-01-30T10:16:23;45.97;;;43.00;;
7729;SDS011;3908;52.310;7.230;2024-01-30T10:19:13;47.00;;;44.20;;
7729;SDS011;3908;52.310;7.230;2024-01-30T10:22:00;40.60;;;37.63;;
7729;SDS011;3908;52.310;7.230;2024-01-30T10:24:50;27.77;;;25.80;;
7729;SDS011;3908;52.310;7.230;2024-01-30T10:27:39;29.20;;;27.03;;
7729;SDS011;3908;52.310;7.230;2024-01-30T10:30:28;68.67;;;64.77;;
7729;SDS011;3908;52.310;7.230;2024-01-30T10:33:15;93.73;;;88.10;;
7729;SDS011;3908;52.310;7.230;2024-01-30T10:36:03;51.80;;;48.27;;
7729;SDS011;3908;52.310;7.230;2024-01-30T10:38:54;45.03;;;42.10;;
7729;SDS011;3908;52.310;7.230;2024-01-30T10:41:45;48.60;;;45.43;;
7729;SDS011;3908;52.310;7.230;2024-01-30T10:44:36;50.27;;;47.20;;
7729;SDS011;3908;52.310;7.230;2024-01-30T10:47:30;50.67;;;47.33;;
7729;SDS011;3908;52.310;7.230;2024-01-30T10:50:21;44.40;;;41.33;;
7729;SDS011;3908;52.310;7.230;2024-01-30T10:53:11;39.23;;;36.63;;
7729;SDS011;3908;52.310;7.230;2024-01-30T10:55:59;36.43;;;33.67;;
7729;SDS011;3908;52.310;7.230;2024-01-30T10:58:51;33.37;;;30.83;;
7729;SDS011;3908;52.310;7.230;2024-01-30T11:01:39;29.13;;;26.93;;
7729;SDS011;3908;52.310;7.230;2024-01-30T11:04:28;42.13;;;39.53;;
7729;SDS011;3908;52.310;7.230;2024-01-30T11:07:24;48.63;;;45.63;;
7729;SDS011;3908;52.310;7.230;2024-01-30T11:10:12;45.40;;;42.60;;
7729;SDS011;3908;52.310;7.230;2024-01-30T11:13:09;35.07;;;32.47;;
7729;SDS011;3908;52.310;7.230;2024-01-30T11:16:00;39.50;;;36.87;;
7729;SDS011;3908;52.310;7.230;2024-01-30T11:18:51;36.10;;;33.57;;
7729;SDS011;3908;52.310;7.230;2024-01-30T11:21:42;34.57;;;32.30;;
7729;SDS011;3908;52.310;7.230;2024-01-30T11:24:29;34.43;;;31.67;;
7729;SDS011;3908;52.310;7.230;2024-01-30T11:27:16;35.60;;;33.27;;
7729;SDS011;3908;52.310;7.230;2024-01-30T11:30:07;34.33;;;31.77;;
7729;SDS011;3908;52.310;7.230;2024-01-30T11:32:58;32.40;;;30.00;;
7729;SDS011;3908;52.310;7.230;2024-01-30T11:35:53;32.07;;;29.97;;
7729;SDS011;3908;52.310;7.230;2024-01-30T11:38:46;32.73;;;30.00;;
7729;SDS011;3908;52.310;7.230;2024-01-30T11:41:33;30.33;;;28.07;;
7729;SDS011;3908;52.310;7.230;2024-01-30T11:44:25;30.20;;;27.77;;
7729;SDS011;3908;52.310;7.230;2024-01-30T11:47:12;26.00;;;23.70;;
7729;SDS011;3908;52.310;7.230;2024-01-30T11:50:03;25.47;;;23.63;;
7729;SDS011;3908;52.310;7.230;2024-01-30T11:52:52;27.53;;;25.17;;
7729;SDS011;3908;52.310;7.230;2024-01-30T11:55:51;22.97;;;21.10;;
7729;SDS011;3908;52.310;7.230;2024-01-30T11:58:42;23.67;;;21.83;;
7729;SDS011;3908;52.310;7.230;2024-01-30T12:01:29;20.57;;;18.70;;
7729;SDS011;3908;52.310;7.230;2024-01-30T12:04:20;18.17;;;16.53;;
7729;SDS011;3908;52.310;7.230;2024-01-30T12:07:07;19.60;;;17.27;;
7729;SDS011;3908;52.310;7.230;2024-01-30T12:09:57;29.13;;;26.73;;
7729;SDS011;3908;52.310;7.230;2024-01-30T12:12:46;33.37;;;31.23;;
7729;SDS011;3908;52.310;7.230;2024-01-30T12:15:38;41.83;;;39.13;;
7729;SDS011;3908;52.310;7.230;2024-01-30T12:18:26;48.17;;;45.10;;
7729;SDS011;3908;52.310;7.230;2024-01-30T12:21:15;48.13;;;45.03;;
7729;SDS011;3908;52.310;7.230;2024-01-30T12:24:03;48.77;;;45.80;;
7729;SDS011;3908;52.310;7.230;2024-01-30T12:26:56;45.77;;;42.77;;
7729;SDS011;3908;52.310;7.230;2024-01-30T12:29:45;46.10;;;43.33;;
7729;SDS011;3908;52.310;7.230;2024-01-30T12:32:34;39.93;;;37.13;;
7729;SDS011;3908;52.310;7.230;2024-01-30T12:48:07;49.20;;;46.07;;
7729;SDS011;3908;52.310;7.230;2024-01-30T12:50:58;53.70;;;50.50;;
7729;SDS011;3908;52.310;7.230;2024-01-30T12:53:49;55.70;;;52.33;;
7729;SDS011;3908;52.310;7.230;2024-01-30T12:56:36;39.70;;;37.30;;
7729;SDS011;3908;52.310;7.230;2024-01-30T12:59:23;37.57;;;35.07;;
7729;SDS011;3908;52.310;7.230;2024-01-30T13:02:11;38.53;;;36.13;;
7729;SDS011;3908;52.310;7.230;2024-01-30T13:05:01;36.23;;;33.77;;
7729;SDS011;3908;52.310;7.230;2024-01-30T13:07:49;30.97;;;29.03;;
7729;SDS011;3908;52.310;7.230;2024-01-30T13:10:39;24.30;;;22.43;;
7729;SDS011;3908;52.310;7.230;2024-01-30T13:13:26;24.77;;;22.87;;
7729;SDS011;3908;52.310;7.230;2024-01-30T13:16:16;45.00;;;42.00;;
7729;SDS011;3908;52.310;7.230;2024-01-30T13:19:03;57.00;;;53.90;;
7729;SDS011;3908;52.310;7.230;2024-01-30T13:21:52;78.53;;;74.43;;
7729;SDS011;3908;52.310;7.230;2024-01-30T13:24:39;99.17;;;92.50;;
7729;SDS011;3908;52.310;7.230;2024-01-30T13:27:26;88.10;;;83.57;;
7729;SDS011;3908;52.310;7.230;2024-01-30T13:30:13;87.43;;;83.07;;
7729;SDS011;3908;52.310;7.230;2024-01-30T13:33:00;87.77;;;83.37;;
7729;SDS011;3908;52.310;7.230;2024-01-30T13:35:48;83.13;;;78.80;;
7729;SDS011;3908;52.310;7.230;2024-01-30T13:38:37;83.40;;;78.80;;
7729;SDS011;3908;52.310;7.230;2024-01-30T13:41:25;88.83;;;84.20;;
7729;SDS011;3908;52.310;7.230;2024-01-30T13:44:15;88.33;;;83.73;;
7729;SDS011;3908;52.310;7.230;2024-01-30T13:47:03;76.17;;;71.87;;
7729;SDS011;3908;52.310;7.230;2024-01-30T13:49:50;74.63;;;70.60;;
7729;SDS011;3908;52.310;7.230;2024-01-30T13:52:38;69.27;;;65.47;;
7729;SDS011;3908;52.310;7.230;2024-01-30T13:55:30;64.03;;;60.60;;
7729;SDS011;3908;52.310;7.230;2024-01-30T13:58:17;68.07;;;64.37;;
7729;SDS011;3908;52.310;7.230;2024-01-30T14:01:07;63.70;;;59.73;;
7729;SDS011;3908;52.310;7.230;2024-01-30T14:03:58;58.43;;;55.20;;
7729;SDS011;3908;52.310;7.230;2024-01-30T14:06:45;49.47;;;46.47;;
7729;SDS011;3908;52.310;7.230;2024-01-30T14:09:32;47.13;;;44.23;;
7729;SDS011;3908;52.310;7.230;2024-01-30T14:17:30;58.93;;;55.73;;
7729;SDS011;3908;52.310;7.230;2024-01-30T14:22:45;63.53;;;60.13;;
7729;SDS011;3908;52.310;7.230;2024-01-30T14:25:35;54.67;;;51.60;;
7729;SDS011;3908;52.310;7.230;2024-01-30T14:28:25;59.77;;;56.63;;
7729;SDS011;3908;52.310;7.230;2024-01-30T14:31:12;73.00;;;69.17;;
7729;SDS011;3908;52.310;7.230;2024-01-30T14:36:37;79.07;;;75.00;;
7729;SDS011;3908;52.310;7.230;2024-01-30T14:39:24;81.80;;;77.43;;
7729;SDS011;3908;52.310;7.230;2024-01-30T14:42:11;73.33;;;69.70;;
7729;SDS011;3908;52.310;7.230;2024-01-30T15:00:31;20.10;;;18.87;;
7729;SDS011;3908;52.310;7.230;2024-01-30T15:11:02;12.20;;;11.10;;
7729;SDS011;3908;52.310;7.230;2024-01-30T15:13:49;13.07;;;12.27;;
7729;SDS011;3908;52.310;7.230;2024-01-30T15:16:37;11.80;;;10.90;;
7729;SDS011;3908;52.310;7.230;2024-01-30T15:19:25;11.07;;;10.40;;
7729;SDS011;3908;52.310;7.230;2024-01-30T15:22:12;10.53;;;10.03;;
7729;SDS011;3908;52.310;7.230;2024-01-30T15:25:02;11.10;;;10.40;;
7729;SDS011;3908;52.310;7.230;2024-01-30T15:27:50;10.50;;;9.90;;
7729;SDS011;3908;52.310;7.230;2024-01-30T15:30:37;10.47;;;9.87;;
7729;SDS011;3908;52.310;7.230;2024-01-30T15:33:25;12.43;;;11.43;;
7729;SDS011;3908;52.310;7.230;2024-01-30T15:36:16;11.53;;;10.63;;
7729;SDS011;3908;52.310;7.230;2024-01-30T15:41:38;15.70;;;14.80;;
7729;SDS011;3908;52.310;7.230;2024-01-30T15:44:25;16.47;;;15.67;;
7729;SDS011;3908;52.310;7.230;2024-01-30T15:47:12;20.57;;;19.67;;
7729;SDS011;3908;52.310;7.230;2024-01-30T15:50:04;19.47;;;18.53;;
7729;SDS011;3908;52.310;7.230;2024-01-30T15:52:52;21.00;;;19.70;;
7729;SDS011;3908;52.310;7.230;2024-01-30T15:55:39;21.17;;;20.17;;
7729;SDS011;3908;52.310;7.230;2024-01-30T15:58:26;22.53;;;21.50;;
7729;SDS011;3908;52.310;7.230;2024-01-30T16:01:13;21.73;;;20.73;;
7729;SDS011;3908;52.310;7.230;2024-01-30T16:04:00;22.37;;;21.23;;
7729;SDS011;3908;52.310;7.230;2024-01-30T16:06:49;21.27;;;20.17;;
7729;SDS011;3908;52.310;7.230;2024-01-30T16:09:36;16.57;;;15.70;;
7729;SDS011;3908;52.310;7.230;2024-01-30T16:12:23;15.87;;;14.97;;
7729;SDS011;3908;52.310;7.230;2024-01-30T16:15:19;12.37;;;11.47;;
7729;SDS011;3908;52.310;7.230;2024-01-30T16:18:07;9.37;;;8.70;;
7729;SDS011;3908;52.310;7.230;2024-01-30T16:20:55;10.03;;;9.30;;
7729;SDS011;3908;52.310;7.230;2024-01-30T16:23:47;16.47;;;15.33;;
7729;SDS011;3908;52.310;7.230;2024-01-30T17:05:23;49.70;;;47.23;;
7729;SDS011;3908;52.310;7.230;2024-01-30T17:08:19;49.90;;;47.40;;
7729;SDS011;3908;52.310;7.230;2024-01-30T17:11:06;51.57;;;49.07;;
7729;SDS011;3908;52.310;7.230;2024-01-30T17:13:57;54.10;;;51.00;;
7729;SDS011;3908;52.310;7.230;2024-01-30T17:16:44;57.23;;;54.03;;
7729;SDS011;3908;52.310;7.230;2024-01-30T17:19:37;48.00;;;45.57;;
7729;SDS011;3908;52.310;7.230;2024-01-30T17:22:25;42.57;;;40.17;;
7729;SDS011;3908;52.310;7.230;2024-01-30T17:25:13;36.27;;;34.37;;
7729;SDS011;3908;52.310;7.230;2024-01-30T17:28:00;29.57;;;27.87;;
7729;SDS011;3908;52.310;7.230;2024-01-30T17:30:49;27.27;;;25.63;;
7729;SDS011;3908;52.310;7.230;2024-01-30T17:33:39;27.60;;;25.93;;
7729;SDS011;3908;52.310;7.230;2024-01-30T17:36:27;23.30;;;21.60;;
7729;SDS011;3908;52.310;7.230;2024-01-30T17:39:16;22.93;;;21.47;;
7729;SDS011;3908;52.310;7.230;2024-01-30T17:42:03;21.83;;;20.50;;
7729;SDS011;3908;52.310;7.230;2024-01-30T17:44:53;26.50;;;24.60;;
7729;SDS011;3908;52.310;7.230;2024-01-30T17:47:41;29.10;;;27.40;;
7729;SDS011;3908;52.310;7.230;2024-01-30T17:50:30;26.00;;;24.30;;
7729;SDS011;3908;52.310;7.230;2024-01-30T17:53:17;24.97;;;23.50;;
7729;SDS011;3908;52.310;7.230;2024-01-30T17:56:06;26.37;;;24.53;;
7729;SDS011;3908;52.310;7.230;2024-01-30T17:58:59;20.33;;;19.03;;
7729;SDS011;3908;52.310;7.230;2024-01-30T18:01:47;18.17;;;16.90;;
7729;SDS011;3908;52.310;7.230;2024-01-30T18:04:36;16.30;;;15.10;;
7729;SDS011;3908;52.310;7.230;2024-01-30T18:07:25;15.80;;;14.70;;
7729;SDS011;3908;52.310;7.230;2024-01-30T18:10:16;17.00;;;15.43;;
7729;SDS011;3908;52.310;7.230;2024-01-30T18:13:06;16.50;;;15.30;;
7729;SDS011;3908;52.310;7.230;2024-01-30T18:15:54;15.27;;;14.00;;
7729;SDS011;3908;52.310;7.230;2024-01-30T18:18:41;16.10;;;14.83;;
7729;SDS011;3908;52.310;7.230;2024-01-30T18:21:28;16.40;;;15.20;;
7729;SDS011;3908;52.310;7.230;2024-01-30T18:24:16;15.63;;;14.43;;